createdAt,value
2023-01-13T00:00:34.853Z,15.83
2023-01-13T00:03:18.168Z,15.37
2023-01-13T00:06:01.627Z,14.30
2023-01-13T00:08:45.198Z,15.70
2023-01-13T00:11:28.322Z,13.70
2023-01-13T00:14:11.386Z,13.97
2023-01-13T00:16:55.949Z,14.40
2023-01-13T00:19:38.974Z,15.50
2023-01-13T00:22:22.025Z,13.10
2023-01-13T00:25:06.756Z,13.53
2023-01-13T00:27:50.120Z,13.87
2023-01-13T00:30:34.183Z,12.63
2023-01-13T00:33:18.625Z,14.57
2023-01-13T00:36:02.910Z,14.80
2023-01-13T00:38:47.830Z,15.70
2023-01-13T00:41:50.907Z,16.07
2023-01-13T00:44:32.879Z,14.83
2023-01-13T00:47:15.966Z,14.53
2023-01-13T00:50:00.408Z,16.50
2023-01-13T00:52:43.533Z,13.23
2023-01-13T00:55:26.556Z,14.30
2023-01-13T00:58:09.617Z,13.97
2023-01-13T01:00:52.796Z,14.40
2023-01-13T01:03:36.797Z,17.03
2023-01-13T01:06:24.878Z,15.47
2023-01-13T01:09:08.174Z,15.20
2023-01-13T01:11:51.202Z,15.57
2023-01-13T01:14:35.141Z,16.00
2023-01-13T01:17:18.380Z,17.10
2023-01-13T01:20:01.502Z,16.30
2023-01-13T01:22:45.995Z,16.50
2023-01-13T01:25:29.048Z,16.07
2023-01-13T01:28:12.039Z,15.20
2023-01-13T01:30:55.699Z,18.17
2023-01-13T01:33:38.724Z,16.57
2023-01-13T01:36:24.243Z,16.47
2023-01-13T01:39:08.711Z,16.97
2023-01-13T01:42:09.545Z,16.90
2023-01-13T01:45:01.927Z,15.90
2023-01-13T01:47:46.890Z,17.47
2023-01-13T01:50:30.766Z,15.57
2023-01-13T01:53:19.768Z,14.53
2023-01-13T01:56:04.827Z,15.23
2023-01-13T01:58:52.241Z,14.53
2023-01-13T02:01:35.634Z,17.00
2023-01-13T02:04:24.531Z,16.73
2023-01-13T02:07:08.441Z,14.60
2023-01-13T02:09:52.878Z,16.60
2023-01-13T02:12:38.490Z,16.03
2023-01-13T02:15:24.228Z,15.33
2023-01-13T02:18:22.194Z,14.10
2023-01-13T02:21:39.755Z,14.53
2023-01-13T02:24:54.028Z,14.57
2023-01-13T02:27:59.470Z,15.50
2023-01-13T02:31:04.597Z,16.87
2023-01-13T02:33:59.554Z,13.87
2023-01-13T02:36:52.208Z,13.70
2023-01-13T02:39:39.725Z,13.23
2023-01-13T02:42:46.006Z,14.30
2023-01-13T02:45:33.634Z,14.13
2023-01-13T02:48:20.428Z,13.63
2023-01-13T02:51:07.927Z,13.87
2023-01-13T02:53:56.511Z,15.70
2023-01-13T02:56:46.267Z,13.43
2023-01-13T02:59:32.591Z,13.13
2023-01-13T03:02:20.319Z,13.43
2023-01-13T03:05:05.705Z,14.77
2023-01-13T03:08:15.596Z,15.50
2023-01-13T03:11:05.186Z,15.93
2023-01-13T03:14:05.850Z,12.17
2023-01-13T03:17:00.932Z,13.97
2023-01-13T03:19:48.315Z,16.30
2023-01-13T03:22:41.449Z,14.83
2023-01-13T03:25:29.793Z,13.67
2023-01-13T03:28:20.404Z,17.60
2023-01-13T03:31:09.088Z,15.33
2023-01-13T03:33:57.459Z,16.93
2023-01-13T03:36:42.906Z,14.60
2023-01-13T03:39:32.928Z,14.60
2023-01-13T03:42:22.191Z,15.43
2023-01-13T03:45:10.748Z,15.53
2023-01-13T03:47:58.644Z,17.80
2023-01-13T03:50:48.694Z,14.53
2023-01-13T03:53:35.735Z,17.33
2023-01-13T03:56:30.312Z,17.70
2023-01-13T03:59:18.632Z,14.87
2023-01-13T04:02:08.125Z,14.70
2023-01-13T04:04:56.300Z,14.90
2023-01-13T04:07:51.873Z,13.90
2023-01-13T04:10:42.001Z,18.33
2023-01-13T04:13:33.423Z,14.17
2023-01-13T04:16:16.801Z,16.43
2023-01-13T04:18:59.934Z,18.73
2023-01-13T04:21:43.400Z,14.67
2023-01-13T04:24:26.713Z,14.40
2023-01-13T04:27:09.760Z,14.77
2023-01-13T04:29:54.212Z,14.90
2023-01-13T04:32:37.548Z,12.67
2023-01-13T04:35:20.606Z,12.50
2023-01-13T04:38:04.710Z,14.87
2023-01-13T04:40:47.996Z,12.87
2023-01-13T04:43:31.038Z,30.43
2023-01-13T04:46:16.195Z,34.20
2023-01-13T04:48:59.266Z,37.87
2023-01-13T04:51:42.451Z,47.53
2023-01-13T04:54:25.760Z,41.50
2023-01-13T04:57:09.045Z,32.40
2023-01-13T04:59:52.118Z,19.20
2023-01-13T05:02:37.060Z,17.33
2023-01-13T05:05:20.422Z,15.40
2023-01-13T05:08:03.535Z,13.47
2023-01-13T05:10:46.572Z,13.43
2023-01-13T05:13:46.758Z,13.77
2023-01-13T05:16:47.421Z,12.53
2023-01-13T05:19:34.043Z,12.20
2023-01-13T05:22:34.643Z,12.13
2023-01-13T05:25:25.327Z,12.07
2023-01-13T05:28:09.367Z,12.87
2023-01-13T05:30:52.633Z,12.60
2023-01-13T05:33:36.068Z,15.00
2023-01-13T05:36:20.631Z,16.00
2023-01-13T05:39:03.739Z,17.30
2023-01-13T05:42:04.482Z,13.97
2023-01-13T05:44:47.568Z,15.97
2023-01-13T05:47:30.655Z,15.97
2023-01-13T05:50:13.992Z,13.80
2023-01-13T05:52:58.674Z,14.30
2023-01-13T05:55:42.417Z,12.43
2023-01-13T05:58:28.368Z,19.47
2023-01-13T06:01:11.543Z,15.43
2023-01-13T06:03:54.698Z,18.60
2023-01-13T06:06:37.746Z,14.63
2023-01-13T06:09:22.832Z,14.67
2023-01-13T06:12:06.698Z,14.43
2023-01-13T06:14:49.797Z,17.03
2023-01-13T06:17:33.005Z,16.07
2023-01-13T06:20:17.111Z,16.67
2023-01-13T06:23:01.044Z,17.17
2023-01-13T06:25:51.229Z,18.03
2023-01-13T06:28:34.983Z,20.43
2023-01-13T06:31:18.344Z,19.00
2023-01-13T06:34:06.058Z,23.73
2023-01-13T06:36:53.589Z,20.53
2023-01-13T06:39:36.918Z,18.63
2023-01-13T06:42:38.954Z,21.73
2023-01-13T06:45:23.086Z,19.03
2023-01-13T06:48:06.897Z,22.90
2023-01-13T06:50:51.052Z,28.70
2023-01-13T06:53:34.238Z,19.87
2023-01-13T06:56:18.317Z,19.47
2023-01-13T06:59:02.848Z,19.70
2023-01-13T07:01:46.231Z,23.87
2023-01-13T07:04:29.602Z,21.63
2023-01-13T07:07:13.207Z,22.57
2023-01-13T07:09:56.333Z,22.50
2023-01-13T07:12:59.902Z,22.87
2023-01-13T07:15:53.222Z,23.37
2023-01-13T07:18:37.630Z,23.33
2023-01-13T07:21:21.263Z,27.03
2023-01-13T07:24:05.374Z,23.00
2023-01-13T07:26:48.391Z,24.40
2023-01-13T07:29:31.580Z,24.97
2023-01-13T07:32:16.655Z,21.97
2023-01-13T07:35:04.843Z,25.67
2023-01-13T07:37:49.934Z,35.30
2023-01-13T07:40:33.497Z,20.67
2023-01-13T07:43:33.922Z,23.37
2023-01-13T07:46:17.153Z,22.00
2023-01-13T07:49:02.192Z,21.50
2023-01-13T07:51:48.246Z,18.63
2023-01-13T07:54:40.199Z,22.33
2023-01-13T07:57:23.973Z,24.20
2023-01-13T08:00:08.192Z,25.93
2023-01-13T08:02:51.603Z,21.53
2023-01-13T08:05:37.426Z,20.67
2023-01-13T08:08:20.658Z,20.07
2023-01-13T08:11:06.773Z,20.80
2023-01-13T08:13:49.928Z,21.27
2023-01-13T08:16:35.300Z,26.07
2023-01-13T08:19:18.665Z,21.40
2023-01-13T08:22:03.403Z,22.43
2023-01-13T08:24:46.583Z,23.30
2023-01-13T08:27:29.694Z,22.10
2023-01-13T08:30:13.348Z,22.00
2023-01-13T08:32:56.507Z,19.67
2023-01-13T08:35:39.936Z,19.83
2023-01-13T08:38:25.144Z,18.80
2023-01-13T08:41:12.028Z,20.50
2023-01-13T08:43:55.180Z,16.63
2023-01-13T08:46:42.167Z,18.67
2023-01-13T08:49:26.331Z,15.77
2023-01-13T08:52:09.714Z,13.93
2023-01-13T08:54:54.279Z,14.33
2023-01-13T08:57:37.490Z,12.27
2023-01-13T09:00:23.685Z,11.00
2023-01-13T09:03:06.804Z,16.00
2023-01-13T09:05:50.066Z,15.33
2023-01-13T09:08:33.239Z,16.10
2023-01-13T09:11:40.159Z,15.70
2023-01-13T09:14:26.775Z,12.00
2023-01-13T09:17:10.077Z,10.83
2023-01-13T09:19:53.201Z,13.40
2023-01-13T09:22:37.776Z,16.07
2023-01-13T09:25:24.054Z,15.00
2023-01-13T09:28:09.720Z,28.50
2023-01-13T09:30:54.396Z,17.93
2023-01-13T09:33:54.807Z,13.70
2023-01-13T09:36:37.894Z,16.70
2023-01-13T09:39:22.518Z,15.13
2023-01-13T09:42:32.068Z,13.53
2023-01-13T09:45:20.488Z,12.27
2023-01-13T09:48:10.059Z,11.77
2023-01-13T09:51:01.949Z,14.43
2023-01-13T09:53:49.934Z,13.30
2023-01-13T09:56:33.081Z,13.87
2023-01-13T09:59:17.365Z,13.23
2023-01-13T10:02:14.902Z,17.03
2023-01-13T10:05:07.399Z,15.33
2023-01-13T10:07:53.398Z,16.33
2023-01-13T10:10:43.176Z,13.80
2023-01-13T10:13:27.760Z,13.30
2023-01-13T10:16:25.325Z,17.53
2023-01-13T10:19:17.387Z,20.67
2023-01-13T10:22:17.185Z,16.00
2023-01-13T10:25:20.644Z,15.90
2023-01-13T10:28:11.638Z,16.40
2023-01-13T10:30:54.882Z,15.00
2023-01-13T10:33:38.285Z,14.97
2023-01-13T10:36:23.385Z,13.80
2023-01-13T10:39:11.371Z,14.50
2023-01-13T10:42:03.975Z,13.67
2023-01-13T10:44:52.595Z,15.07
2023-01-13T10:47:37.283Z,20.33
2023-01-13T10:50:25.479Z,12.70
2023-01-13T10:53:23.827Z,15.77
2023-01-13T10:56:07.297Z,13.97
2023-01-13T10:58:50.461Z,14.80
2023-01-13T11:01:34.002Z,21.83
2023-01-13T11:04:40.751Z,13.20
2023-01-13T11:07:31.328Z,13.87
2023-01-13T11:10:24.693Z,13.43
2023-01-13T11:13:14.820Z,18.17
2023-01-13T11:16:03.494Z,11.33
2023-01-13T11:19:02.579Z,14.13
2023-01-13T11:21:53.306Z,16.03
2023-01-13T11:24:40.526Z,20.47
2023-01-13T11:27:31.430Z,16.43
2023-01-13T11:30:31.620Z,20.37
2023-01-13T11:33:32.054Z,14.60
2023-01-13T11:36:20.576Z,13.60
2023-01-13T11:39:17.951Z,14.83
2023-01-13T11:42:24.333Z,14.27
2023-01-13T11:45:19.813Z,13.30
2023-01-13T11:48:03.822Z,14.70
2023-01-13T11:50:54.008Z,18.83
2023-01-13T11:53:53.073Z,14.67
2023-01-13T11:56:55.297Z,12.37
2023-01-13T11:59:59.965Z,18.97
2023-01-13T12:02:53.900Z,14.50
2023-01-13T12:05:39.756Z,12.80
2023-01-13T12:08:35.567Z,11.00
2023-01-13T12:11:26.741Z,10.83
2023-01-13T12:14:21.311Z,10.17
2023-01-13T12:17:12.786Z,12.23
2023-01-13T12:19:57.519Z,14.17
2023-01-13T12:22:42.419Z,12.03
2023-01-13T12:25:33.779Z,12.20
2023-01-13T12:28:21.894Z,13.30
2023-01-13T12:31:05.334Z,12.47
2023-01-13T12:34:00.629Z,12.07
2023-01-13T12:36:58.401Z,15.23
2023-01-13T12:39:51.581Z,13.00
2023-01-13T12:43:00.047Z,12.23
2023-01-13T12:45:44.667Z,12.87
2023-01-13T12:48:49.451Z,10.63
2023-01-13T12:51:35.771Z,9.80
2023-01-13T12:55:17.753Z,11.53
2023-01-13T12:58:16.515Z,13.63
2023-01-13T13:01:09.691Z,13.87
2023-01-13T13:04:10.538Z,15.07
2023-01-13T13:07:05.656Z,14.80
2023-01-13T13:09:54.539Z,14.50
2023-01-13T13:13:12.452Z,19.47
2023-01-13T13:16:36.340Z,23.27
2023-01-13T13:19:48.193Z,26.80
2023-01-13T13:22:45.969Z,22.57
2023-01-13T13:25:30.822Z,19.60
2023-01-13T13:28:25.122Z,22.50
2023-01-13T13:31:31.529Z,27.20
2023-01-13T13:34:26.292Z,25.13
2023-01-13T13:37:32.771Z,18.67
2023-01-13T13:40:34.588Z,20.90
2023-01-13T13:43:39.183Z,24.13
2023-01-13T13:46:45.665Z,22.27
2023-01-13T13:49:39.795Z,23.80
2023-01-13T13:52:26.839Z,22.47
2023-01-13T13:55:18.746Z,18.67
2023-01-13T13:58:02.736Z,21.27
2023-01-13T14:00:49.336Z,20.80
2023-01-13T14:03:37.809Z,23.23
2023-01-13T14:06:25.335Z,18.03
2023-01-13T14:09:18.070Z,24.10
2023-01-13T14:12:03.969Z,22.10
2023-01-13T14:14:48.322Z,19.37
2023-01-13T14:17:32.981Z,23.37
2023-01-13T14:20:19.754Z,18.10
2023-01-13T14:23:05.469Z,22.70
2023-01-13T14:25:50.016Z,20.90
2023-01-13T14:28:36.770Z,24.30
2023-01-13T14:31:22.842Z,17.77
2023-01-13T14:34:31.068Z,18.17
2023-01-13T14:37:26.291Z,22.67
2023-01-13T14:40:49.539Z,24.30
2023-01-13T14:43:32.672Z,26.00
2023-01-13T14:46:17.713Z,20.53
2023-01-13T14:49:02.496Z,21.20
2023-01-13T14:51:46.985Z,24.87
2023-01-13T14:54:48.757Z,25.73
2023-01-13T14:57:33.656Z,27.93
2023-01-13T15:00:23.674Z,28.67
2023-01-13T15:03:08.932Z,36.07
2023-01-13T15:05:53.749Z,35.47
2023-01-13T15:08:40.473Z,31.37
2023-01-13T15:11:26.174Z,29.87
2023-01-13T15:14:12.216Z,26.87
2023-01-13T15:16:55.263Z,30.87
2023-01-13T15:19:38.291Z,28.07
2023-01-13T15:22:21.387Z,29.27
2023-01-13T15:25:06.848Z,30.20
2023-01-13T15:27:53.417Z,30.00
2023-01-13T15:30:36.546Z,32.43
2023-01-13T15:33:20.808Z,35.17
2023-01-13T15:36:04.548Z,34.57
2023-01-13T15:38:47.657Z,46.30
2023-01-13T15:41:49.786Z,37.60
2023-01-13T15:44:50.862Z,44.53
2023-01-13T15:47:34.205Z,39.50
2023-01-13T15:50:20.953Z,39.63
2023-01-13T15:53:04.168Z,44.83
2023-01-13T15:55:50.589Z,40.83
2023-01-13T15:58:35.074Z,36.83
2023-01-13T16:01:21.058Z,31.17
2023-01-13T16:04:07.427Z,34.27
2023-01-13T16:06:50.574Z,32.07
2023-01-13T16:09:33.622Z,29.87
2023-01-13T16:12:16.972Z,30.23
2023-01-13T16:15:01.770Z,35.77
2023-01-13T16:17:46.300Z,29.07
2023-01-13T16:20:29.847Z,32.90
2023-01-13T16:23:13.386Z,35.10
2023-01-13T16:25:56.489Z,34.73
2023-01-13T16:28:39.751Z,31.40
2023-01-13T16:31:30.795Z,33.00
2023-01-13T16:34:14.029Z,25.50
2023-01-13T16:36:57.096Z,31.33
2023-01-13T16:39:40.206Z,30.57
2023-01-13T16:42:23.741Z,39.07
2023-01-13T16:45:09.732Z,47.53
2023-01-13T16:47:54.711Z,52.70
2023-01-13T16:50:41.730Z,54.60
2023-01-13T16:53:25.411Z,64.00
2023-01-13T16:56:20.531Z,49.27
2023-01-13T16:59:08.627Z,45.33
2023-01-13T17:01:52.343Z,48.13
2023-01-13T17:04:37.251Z,40.53
2023-01-13T17:07:20.615Z,36.03
2023-01-13T17:10:04.232Z,34.50
2023-01-13T17:12:47.443Z,39.97
2023-01-13T17:15:30.785Z,39.77
2023-01-13T17:18:14.657Z,37.23
2023-01-13T17:21:00.150Z,37.93
2023-01-13T17:23:43.637Z,39.53
2023-01-13T17:26:32.406Z,37.70
2023-01-13T17:29:17.345Z,38.87
2023-01-13T17:32:01.550Z,38.83
2023-01-13T17:34:45.220Z,37.67
2023-01-13T17:37:29.739Z,33.77
2023-01-13T17:40:14.156Z,36.93
2023-01-13T17:42:57.539Z,36.73
2023-01-13T17:45:42.946Z,35.40
2023-01-13T17:48:26.566Z,37.70
2023-01-13T17:51:16.656Z,49.00
2023-01-13T17:54:01.163Z,37.70
2023-01-13T17:56:44.854Z,38.83
2023-01-13T17:59:28.026Z,49.57
2023-01-13T18:02:13.846Z,45.97
2023-01-13T18:04:57.167Z,47.13
2023-01-13T18:07:40.512Z,49.63
2023-01-13T18:10:25.743Z,51.60
2023-01-13T18:13:10.071Z,49.73
2023-01-13T18:16:01.930Z,56.77
2023-01-13T18:18:47.048Z,56.97
2023-01-13T18:21:47.681Z,47.53
2023-01-13T18:24:48.247Z,53.00
2023-01-13T18:27:35.678Z,53.07
2023-01-13T18:30:19.069Z,48.33
2023-01-13T18:33:03.467Z,47.73
2023-01-13T18:35:47.055Z,45.63
2023-01-13T18:38:30.207Z,56.90
2023-01-13T18:41:27.863Z,57.10
2023-01-13T18:44:12.798Z,54.50
2023-01-13T18:46:56.034Z,65.00
2023-01-13T18:49:39.520Z,73.47
2023-01-13T18:52:24.293Z,67.03
2023-01-13T18:55:08.284Z,75.10
2023-01-13T18:57:52.324Z,72.87
2023-01-13T19:00:38.109Z,64.03
2023-01-13T19:03:30.056Z,70.03
2023-01-13T19:06:14.024Z,69.50
2023-01-13T19:08:58.302Z,67.37
2023-01-13T19:11:42.550Z,74.83
2023-01-13T19:14:38.365Z,78.20
2023-01-13T19:17:25.426Z,80.77
2023-01-13T19:20:11.539Z,85.00
2023-01-13T19:22:56.029Z,88.20
2023-01-13T19:25:39.276Z,76.80
2023-01-13T19:28:23.251Z,88.23
2023-01-13T19:31:08.364Z,132.80
2023-01-13T19:33:53.068Z,99.97
2023-01-13T19:36:36.382Z,120.73
2023-01-13T19:39:19.833Z,123.53
2023-01-13T19:42:25.112Z,72.07
2023-01-13T19:45:28.344Z,54.97
2023-01-13T19:48:12.737Z,65.00
2023-01-13T19:50:57.560Z,59.07
2023-01-13T19:53:40.782Z,66.07
2023-01-13T19:56:25.173Z,69.00
2023-01-13T19:59:09.515Z,62.60
2023-01-13T20:01:52.774Z,65.27
2023-01-13T20:04:39.416Z,64.57
2023-01-13T20:07:26.663Z,92.67
2023-01-13T20:10:10.930Z,105.67
2023-01-13T20:12:54.382Z,91.00
2023-01-13T20:15:40.166Z,74.87
2023-01-13T20:18:23.734Z,74.83
2023-01-13T20:21:08.542Z,72.30
2023-01-13T20:24:01.879Z,74.90
2023-01-13T20:26:45.788Z,70.17
2023-01-13T20:29:30.381Z,66.90
2023-01-13T20:32:13.541Z,65.13
2023-01-13T20:34:56.716Z,56.10
2023-01-13T20:37:40.649Z,51.83
2023-01-13T20:40:25.770Z,55.00
2023-01-13T20:43:08.187Z,48.70
2023-01-13T20:45:51.788Z,49.73
2023-01-13T20:48:34.873Z,53.27
2023-01-13T20:51:18.500Z,53.23
2023-01-13T20:54:01.726Z,55.30
2023-01-13T20:56:46.778Z,48.67
2023-01-13T20:59:29.871Z,57.67
2023-01-13T21:02:14.918Z,48.43
2023-01-13T21:04:59.156Z,52.20
2023-01-13T21:07:43.584Z,50.27
2023-01-13T21:10:26.687Z,51.00
2023-01-13T21:13:29.801Z,64.93
2023-01-13T21:16:12.980Z,66.70
2023-01-13T21:19:07.197Z,62.77
2023-01-13T21:21:50.323Z,60.80
2023-01-13T21:24:33.440Z,70.80
2023-01-13T21:27:16.699Z,60.63
2023-01-13T21:30:04.138Z,60.57
2023-01-13T21:32:47.845Z,62.87
2023-01-13T21:35:30.947Z,61.30
2023-01-13T21:38:13.982Z,54.80
2023-01-13T21:40:59.825Z,55.53
2023-01-13T21:44:00.115Z,59.53
2023-01-13T21:47:02.006Z,57.60
2023-01-13T21:49:45.171Z,56.67
2023-01-13T21:52:28.493Z,57.30
2023-01-13T21:55:20.437Z,57.20
2023-01-13T21:58:10.671Z,62.47
2023-01-13T22:00:54.312Z,57.77
2023-01-13T22:03:53.307Z,56.63
2023-01-13T22:06:36.368Z,59.83
2023-01-13T22:09:19.628Z,63.30
2023-01-13T22:12:02.722Z,63.53
2023-01-13T22:14:45.739Z,59.17
2023-01-13T22:17:31.653Z,65.10
2023-01-13T22:20:17.055Z,64.53
2023-01-13T22:23:00.381Z,51.03
2023-01-13T22:25:43.388Z,54.93
2023-01-13T22:28:34.205Z,58.67
2023-01-13T22:31:19.630Z,56.93
2023-01-13T22:34:02.672Z,50.20
2023-01-13T22:36:47.197Z,55.23
2023-01-13T22:39:30.516Z,52.87
2023-01-13T22:42:13.584Z,59.20
2023-01-13T22:44:56.918Z,57.03
2023-01-13T22:47:40.519Z,52.17
2023-01-13T22:50:23.606Z,56.07
2023-01-13T22:53:08.040Z,51.10
2023-01-13T22:55:58.039Z,57.27
2023-01-13T22:58:41.066Z,55.33
2023-01-13T23:01:25.002Z,59.97
2023-01-13T23:04:08.242Z,57.30
2023-01-13T23:06:51.715Z,53.80
2023-01-13T23:09:36.502Z,51.13
2023-01-13T23:12:19.821Z,50.33
2023-01-13T23:15:02.845Z,54.47
2023-01-13T23:17:45.868Z,50.03
2023-01-13T23:20:28.935Z,52.10
2023-01-13T23:23:12.266Z,51.93
2023-01-13T23:25:57.133Z,52.47
2023-01-13T23:28:40.658Z,53.63
2023-01-13T23:31:23.833Z,59.10
2023-01-13T23:34:06.934Z,56.37
2023-01-13T23:36:50.080Z,54.43
2023-01-13T23:39:33.175Z,57.17
2023-01-13T23:42:19.488Z,61.00
2023-01-13T23:45:02.480Z,75.97
2023-01-13T23:47:45.565Z,64.37
2023-01-13T23:50:28.610Z,84.53
2023-01-13T23:53:11.891Z,74.60
2023-01-13T23:55:58.298Z,72.90
2023-01-13T23:58:43.520Z,82.80
